Time;durP1;ratioP1;P1;durP2;ratioP2;P2;SDS_P1;SDS_P2;PMS_P1;PMS_P2;Temp;Humidity;BMP_temperature;BMP_pressure;BME280_temperature;BME280_humidity;BME280_pressure;Samples;Min_cycle;Max_cycle;Signal;HPM_P1;HPM_P2
2023/07/01 00:00:39;;;;;;;9.98;4.05;;;16.30;99.90;;;;;;5051511;28;20900;-92
2023/07/01 00:03:07;;;;;;;9.43;3.70;;;16.10;99.90;;;;;;5050505;28;20404;-93
2023/07/01 00:05:33;;;;;;;9.40;3.63;;;16.20;99.90;;;;;;5051372;28;20407;-93
2023/07/01 00:07:59;;;;;;;8.95;3.80;;;16.10;99.90;;;;;;5051207;28;20738;-92
2023/07/01 00:10:25;;;;;;;9.37;3.60;;;16.00;99.90;;;;;;5034097;28;20473;-92
2023/07/01 00:12:51;;;;;;;7.50;3.20;;;16.20;99.90;;;;;;5051561;28;20416;-92
2023/07/01 00:15:18;;;;;;;9.25;3.30;;;16.20;99.90;;;;;;5050097;28;20438;-92
2023/07/01 00:17:44;;;;;;;7.35;3.58;;;16.00;99.90;;;;;;5051395;28;20455;-91
2023/07/01 00:20:10;;;;;;;8.02;3.22;;;16.00;99.90;;;;;;5050399;28;20462;-91
2023/07/01 00:22:36;;;;;;;8.23;3.37;;;16.00;99.90;;;;;;5051083;28;20791;-91
2023/07/01 00:25:02;;;;;;;8.13;3.25;;;16.00;99.90;;;;;;5050594;28;20408;-89
2023/07/01 00:27:28;;;;;;;7.28;3.17;;;16.00;99.90;;;;;;5033731;28;20400;-91
2023/07/01 00:29:53;;;;;;;8.00;3.57;;;16.20;99.90;;;;;;5050910;28;20935;-91
2023/07/01 00:32:19;;;;;;;8.00;3.28;;;16.30;99.90;;;;;;5049975;28;20404;-92
2023/07/01 00:34:45;;;;;;;9.83;3.63;;;16.00;99.90;;;;;;5034554;28;20404;-89
2023/07/01 00:37:11;;;;;;;9.05;3.70;;;16.00;99.90;;;;;;5049779;28;20415;-92
2023/07/01 00:39:37;;;;;;;8.03;3.40;;;15.80;99.90;;;;;;5050652;28;20400;-91
2023/07/01 00:42:02;;;;;;;8.18;3.40;;;16.10;99.90;;;;;;5049964;28;20408;-91
2023/07/01 00:44:28;;;;;;;7.25;3.55;;;16.00;99.90;;;;;;5050118;28;20486;-91
2023/07/01 00:46:54;;;;;;;7.83;3.27;;;16.00;99.90;;;;;;5050464;28;20446;-92
2023/07/01 00:49:21;;;;;;;7.63;3.63;;;16.40;99.90;;;;;;5050166;28;20408;-91
2023/07/01 00:51:46;;;;;;;7.90;3.60;;;16.00;99.90;;;;;;5050414;28;20403;-90
2023/07/01 00:54:12;;;;;;;8.98;3.80;;;16.10;99.90;;;;;;5066134;28;20510;-93
2023/07/01 00:56:38;;;;;;;8.55;3.90;;;16.10;99.90;;;;;;5050474;28;20428;-92
2023/07/01 00:59:04;;;;;;;8.97;4.20;;;16.00;99.90;;;;;;5050259;28;20906;-92
2023/07/01 01:01:34;;;;;;;8.43;3.92;;;16.30;99.90;;;;;;5049673;28;20399;-91
2023/07/01 01:04:15;;;;;;;9.18;4.60;;;16.20;99.90;;;;;;5049283;28;20396;-91
2023/07/01 01:06:46;;;;;;;9.48;4.75;;;16.00;99.90;;;;;;5049569;28;20439;-93
2023/07/01 01:09:25;;;;;;;9.13;4.95;;;16.20;99.90;;;;;;5050857;28;20407;-92
2023/07/01 01:11:54;;;;;;;11.18;5.45;;;15.90;99.90;;;;;;5048612;28;20408;-94
2023/07/01 01:14:21;;;;;;;10.30;5.50;;;15.80;99.90;;;;;;5049314;28;20768;-94
2023/07/01 01:16:49;;;;;;;9.50;5.90;;;16.00;99.90;;;;;;5048113;28;20750;-92
2023/07/01 01:19:48;;;;;;;8.45;5.70;;;15.80;99.90;;;;;;5031983;28;20398;-94
2023/07/01 01:22:34;;;;;;;9.82;6.10;;;15.80;99.90;;;;;;5032004;28;20414;-93
2023/07/01 01:25:10;;;;;;;11.45;6.68;;;15.70;99.90;;;;;;5030326;28;20408;-93
2023/07/01 01:27:39;;;;;;;11.43;7.22;;;15.70;99.90;;;;;;5048946;28;20410;-93
2023/07/01 01:30:06;;;;;;;10.18;6.63;;;15.70;99.90;;;;;;5031609;28;20428;-93
2023/07/01 01:32:35;;;;;;;9.43;7.20;;;15.60;99.90;;;;;;5049237;28;20439;-91
2023/07/01 01:35:03;;;;;;;14.00;8.57;;;15.70;99.90;;;;;;5049260;28;20482;-93
2023/07/01 01:38:11;;;;;;;10.45;8.48;;;15.50;99.90;;;;;;5048698;28;20435;-91
2023/07/01 01:41:12;;;;;;;10.90;8.20;;;15.50;99.90;;;;;;5049590;28;20439;-92
2023/07/01 01:43:41;;;;;;;11.68;8.00;;;15.50;99.90;;;;;;5029540;28;20503;-93
2023/07/01 01:46:08;;;;;;;10.75;7.50;;;15.50;99.90;;;;;;5048118;28;20448;-92
2023/07/01 01:48:36;;;;;;;11.43;7.47;;;15.40;99.90;;;;;;5049655;28;20402;-92
2023/07/01 01:51:03;;;;;;;10.07;6.70;;;15.60;99.90;;;;;;5048086;28;20472;-92
2023/07/01 01:53:30;;;;;;;10.53;7.23;;;15.50;99.90;;;;;;5032283;28;20392;-92
2023/07/01 01:55:57;;;;;;;11.00;7.20;;;15.40;99.90;;;;;;5047786;28;20488;-93
2023/07/01 01:58:24;;;;;;;9.57;6.43;;;15.70;99.90;;;;;;5048539;28;20404;-92
2023/07/01 02:00:49;;;;;;;9.87;6.50;;;15.50;99.90;;;;;;5048845;28;20431;-94
2023/07/01 02:03:15;;;;;;;12.23;6.13;;;15.60;99.90;;;;;;5048604;28;20432;-94
2023/07/01 02:05:41;;;;;;;9.23;6.43;;;15.50;99.90;;;;;;5049067;28;20408;-93
2023/07/01 02:08:06;;;;;;;9.53;6.50;;;15.50;99.90;;;;;;5047435;28;20434;-92
2023/07/01 02:10:32;;;;;;;11.63;7.72;;;15.60;99.90;;;;;;5049070;28;20422;-94
2023/07/01 02:12:58;;;;;;;12.50;7.57;;;15.50;99.90;;;;;;5047757;28;20400;-93
2023/07/01 02:15:24;;;;;;;10.97;7.90;;;15.50;99.90;;;;;;5048872;28;20927;-91
2023/07/01 02:17:49;;;;;;;10.35;7.30;;;15.60;99.90;;;;;;5051600;28;20588;-92
2023/07/01 02:20:16;;;;;;;9.83;8.70;;;15.70;99.90;;;;;;5052400;28;20426;-91
2023/07/01 02:22:42;;;;;;;11.25;8.25;;;15.80;99.90;;;;;;5035738;28;20884;-95
2023/07/01 02:25:08;;;;;;;10.93;8.60;;;15.50;99.90;;;;;;5051250;28;20758;-93
2023/07/01 02:27:33;;;;;;;11.97;8.90;;;15.60;99.90;;;;;;5052417;28;20468;-91
2023/07/01 02:30:00;;;;;;;11.45;8.80;;;15.60;99.90;;;;;;5051526;28;20456;-92
2023/07/01 02:32:25;;;;;;;12.63;9.77;;;15.70;99.90;;;;;;5052729;28;20484;-92
2023/07/01 02:34:51;;;;;;;12.07;8.80;;;15.60;99.90;;;;;;5051412;28;20400;-93
2023/07/01 02:37:17;;;;;;;13.10;10.02;;;15.30;99.90;;;;;;5051674;28;20396;-90
2023/07/01 02:39:45;;;;;;;13.30;10.17;;;15.60;99.90;;;;;;5051608;28;20485;-91
2023/07/01 02:42:11;;;;;;;11.13;9.93;;;15.60;99.90;;;;;;5067761;28;20569;-94
2023/07/01 02:44:37;;;;;;;12.90;10.45;;;15.50;99.90;;;;;;5052676;28;20495;-93
2023/07/01 02:47:03;;;;;;;14.50;10.50;;;15.50;99.90;;;;;;5034483;28;20442;-94
2023/07/01 02:49:29;;;;;;;12.70;10.07;;;15.60;99.90;;;;;;5035291;28;20404;-93
2023/07/01 02:51:54;;;;;;;13.17;10.90;;;15.60;99.90;;;;;;5034426;28;20402;-93
2023/07/01 02:54:20;;;;;;;14.50;10.30;;;15.50;99.90;;;;;;5035136;28;20400;-94
2023/07/01 02:56:45;;;;;;;12.60;10.70;;;15.60;99.90;;;;;;5034303;28;21062;-94
2023/07/01 02:59:11;;;;;;;11.30;10.05;;;15.70;99.90;;;;;;5034987;28;20538;-93
2023/07/01 03:01:40;;;;;;;13.07;11.07;;;15.60;99.90;;;;;;5051772;28;20400;-93
2023/07/01 03:04:06;;;;;;;13.43;10.52;;;15.80;99.90;;;;;;5050204;28;20414;-92
2023/07/01 03:06:35;;;;;;;14.90;12.52;;;15.80;99.90;;;;;;5051683;28;20464;-93
2023/07/01 03:09:07;;;;;;;14.55;12.32;;;15.70;99.90;;;;;;5033956;28;20942;-93
2023/07/01 03:11:35;;;;;;;15.93;12.90;;;15.60;99.90;;;;;;5035291;28;20404;-93
2023/07/01 03:14:12;;;;;;;15.02;13.43;;;15.60;99.90;;;;;;5033758;28;20904;-94
2023/07/01 03:17:11;;;;;;;13.93;12.52;;;15.60;99.90;;;;;;5034501;28;20428;-93
2023/07/01 03:20:22;;;;;;;16.58;14.88;;;15.70;99.90;;;;;;5028411;28;21026;-94
2023/07/01 03:23:14;;;;;;;18.75;15.68;;;15.60;99.90;;;;;;5048620;28;20461;-94
2023/07/01 03:25:41;;;;;;;18.05;15.88;;;15.60;99.90;;;;;;5035274;28;20406;-94
2023/07/01 03:28:08;;;;;;;20.85;17.33;;;15.60;99.90;;;;;;5031457;28;20400;-93
2023/07/01 03:30:34;;;;;;;20.77;18.08;;;15.50;99.90;;;;;;5033881;28;20769;-93
2023/07/01 03:33:01;;;;;;;21.85;18.85;;;15.50;99.90;;;;;;5032586;28;20411;-91
2023/07/01 03:35:27;;;;;;;21.15;19.10;;;16.00;99.90;;;;;;5032905;28;20979;-91
2023/07/01 03:37:52;;;;;;;21.50;18.67;;;15.60;99.90;;;;;;5033995;28;20407;-94
2023/07/01 03:40:20;;;;;;;25.23;22.58;;;15.60;99.90;;;;;;5032147;28;20443;-94
2023/07/01 03:42:48;;;;;;;24.70;22.10;;;15.60;99.90;;;;;;5033870;28;21935;-90
2023/07/01 03:45:14;;;;;;;23.43;21.10;;;15.20;99.90;;;;;;5032022;28;21191;-93
2023/07/01 03:47:43;;;;;;;24.42;21.83;;;15.70;99.90;;;;;;5033474;28;20804;-92
2023/07/01 03:50:10;;;;;;;25.80;23.15;;;15.70;99.90;;;;;;5032533;28;20447;-93
2023/07/01 03:52:40;;;;;;;27.95;24.95;;;15.60;99.90;;;;;;5033027;28;20407;-93
2023/07/01 03:55:07;;;;;;;26.85;24.02;;;15.50;99.90;;;;;;5033641;28;20542;-94
2023/07/01 03:57:34;;;;;;;26.88;24.23;;;15.50;99.90;;;;;;5033029;28;20436;-93
2023/07/01 04:00:01;;;;;;;25.92;23.30;;;15.50;99.90;;;;;;5034386;28;20399;-93
2023/07/01 04:02:28;;;;;;;25.80;23.10;;;15.50;99.90;;;;;;5033155;28;20495;-93
2023/07/01 04:04:53;;;;;;;28.40;25.30;;;15.70;99.90;;;;;;5050767;28;20406;-92
2023/07/01 04:07:22;;;;;;;25.75;23.00;;;15.70;99.90;;;;;;5032690;28;20412;-94
2023/07/01 04:09:49;;;;;;;31.80;26.90;;;15.60;99.90;;;;;;5033780;28;20413;-91
2023/07/01 04:12:19;;;;;;;27.42;24.52;;;15.60;99.90;;;;;;5032632;28;20400;-95
2023/07/01 04:14:53;;;;;;;32.25;26.30;;;15.50;99.90;;;;;;5033199;28;20400;-92
2023/07/01 04:17:19;;;;;;;25.98;23.13;;;15.50;99.90;;;;;;5029356;28;20990;-93
2023/07/01 04:19:44;;;;;;;27.67;24.63;;;15.50;99.90;;;;;;5033033;28;20399;-93
2023/07/01 04:22:30;;;;;;;24.20;21.80;;;15.60;99.90;;;;;;5040173;28;20402;-94
2023/07/01 04:28:37;;;;;;;;;;;;;;;;;;;;;
2023/07/01 04:30:42;;;;;;;27.83;24.80;;;15.60;99.90;;;;;;5064854;28;20408;-93
2023/07/01 04:33:38;;;;;;;26.30;23.48;;;15.60;99.90;;;;;;5057089;28;20437;-95
2023/07/01 04:36:04;;;;;;;27.05;23.23;;;15.50;99.90;;;;;;4976542;28;20536;-92
2023/07/01 04:38:39;;;;;;;25.30;21.67;;;15.50;99.90;;;;;;5041649;28;20400;-94
2023/07/01 04:41:05;;;;;;;25.35;22.65;;;15.40;99.90;;;;;;5048929;28;20396;-92
2023/07/01 04:43:34;;;;;;;25.00;22.13;;;15.50;99.90;;;;;;5051435;28;20408;-93
2023/07/01 04:46:34;;;;;;;;;;;;;;;;;;;;;
2023/07/01 04:49:02;;;;;;;23.20;20.77;;;15.50;99.90;;;;;;5031023;28;20420;-96
2023/07/01 04:51:28;;;;;;;28.03;23.80;;;15.50;99.90;;;;;;5047600;28;20394;-92
2023/07/01 04:53:53;;;;;;;25.75;22.95;;;15.60;99.90;;;;;;5068219;28;20402;-92
2023/07/01 04:56:23;;;;;;;25.30;22.60;;;15.30;99.90;;;;;;5051206;28;20869;-94
2023/07/01 04:58:50;;;;;;;24.08;21.50;;;15.70;99.90;;;;;;5052796;28;20410;-94
2023/07/01 05:01:18;;;;;;;22.38;20.05;;;15.70;99.90;;;;;;5051813;28;20418;-93
2023/07/01 05:03:44;;;;;;;24.47;21.87;;;15.60;99.90;;;;;;5050346;28;20436;-94
2023/07/01 05:06:09;;;;;;;22.20;19.90;;;15.40;99.90;;;;;;5053695;28;20898;-92
2023/07/01 05:08:35;;;;;;;24.48;21.90;;;15.70;99.90;;;;;;5051522;28;20406;-92
2023/07/01 05:11:03;;;;;;;28.63;23.70;;;15.70;99.90;;;;;;5052689;28;20406;-91
2023/07/01 05:13:29;;;;;;;24.67;21.70;;;15.70;99.90;;;;;;5051542;28;20524;-92
2023/07/01 05:15:55;;;;;;;23.27;20.77;;;15.80;99.90;;;;;;5052007;28;20513;-93
2023/07/01 05:18:24;;;;;;;24.52;21.35;;;15.80;99.90;;;;;;5048596;28;20414;-93
2023/07/01 05:20:52;;;;;;;29.88;25.13;;;15.70;99.90;;;;;;5054302;28;20398;-96
2023/07/01 05:23:35;;;;;;;30.88;24.05;;;15.80;99.90;;;;;;5066801;28;21212;-94
2023/07/01 05:26:01;;;;;;;24.00;21.70;;;15.70;99.90;;;;;;5049979;28;20408;-95
2023/07/01 05:28:36;;;;;;;29.77;24.08;;;15.90;99.90;;;;;;5051148;28;20398;-94
2023/07/01 05:31:15;;;;;;;;;;;;;;;;;;;;;
2023/07/01 05:34:09;;;;;;;;;;;;;;;;;;;;;
2023/07/01 05:36:39;;;;;;;25.48;22.73;;;15.80;99.90;;;;;;5066758;28;20433;-94
2023/07/01 05:39:07;;;;;;;25.88;21.65;;;16.00;99.90;;;;;;5052837;28;20441;-94
2023/07/01 05:41:33;;;;;;;23.17;20.73;;;15.90;99.90;;;;;;5050695;28;20390;-93
2023/07/01 05:43:59;;;;;;;25.92;22.35;;;16.10;99.90;;;;;;5072973;28;20402;-93
2023/07/01 05:46:26;;;;;;;27.65;22.40;;;16.00;99.90;;;;;;5070949;28;20402;-93
2023/07/01 05:48:59;;;;;;;25.63;21.37;;;15.90;99.90;;;;;;5055208;28;20444;-95
2023/07/01 05:51:28;;;;;;;29.63;22.38;;;16.10;99.90;;;;;;5071549;28;20406;-95
2023/07/01 05:53:53;;;;;;;25.47;21.57;;;15.90;99.90;;;;;;5072689;28;20489;-94
2023/07/01 05:56:19;;;;;;;23.00;20.38;;;16.00;99.90;;;;;;5073960;28;20433;-92
2023/07/01 05:58:45;;;;;;;26.50;21.03;;;16.10;99.90;;;;;;5071791;28;20815;-93
2023/07/01 06:01:11;;;;;;;25.65;21.15;;;16.00;99.90;;;;;;5057082;28;20402;-93
2023/07/01 06:03:36;;;;;;;24.42;20.25;;;16.10;99.90;;;;;;5071372;28;20398;-94
2023/07/01 06:06:02;;;;;;;29.93;22.00;;;16.10;99.90;;;;;;5056908;28;20435;-93
2023/07/01 06:08:28;;;;;;;24.45;19.98;;;16.00;99.90;;;;;;5054375;28;20409;-92
2023/07/01 06:10:54;;;;;;;25.70;20.00;;;16.20;99.90;;;;;;5072939;28;20444;-92
2023/07/01 06:13:20;;;;;;;27.33;20.70;;;16.10;99.90;;;;;;5056435;28;20461;-93
2023/07/01 06:15:45;;;;;;;28.00;21.20;;;16.10;99.90;;;;;;5071682;28;20971;-91
2023/07/01 06:18:11;;;;;;;26.85;21.02;;;16.10;99.90;;;;;;5056951;28;20394;-93
2023/07/01 06:20:37;;;;;;;27.27;20.90;;;16.20;99.90;;;;;;5071080;28;20414;-91
2023/07/01 06:23:02;;;;;;;31.75;22.25;;;16.30;99.90;;;;;;5073431;28;20425;-92
2023/07/01 06:25:28;;;;;;;25.40;20.20;;;16.40;99.90;;;;;;5071191;28;20434;-92
2023/07/01 06:27:54;;;;;;;23.02;19.52;;;16.60;99.90;;;;;;5073094;28;20428;-91
2023/07/01 06:30:19;;;;;;;27.80;20.73;;;16.40;99.90;;;;;;5072185;28;20813;-92
2023/07/01 06:32:45;;;;;;;25.98;20.67;;;16.50;99.90;;;;;;5055162;28;20389;-91
2023/07/01 06:35:11;;;;;;;33.67;22.87;;;16.60;99.90;;;;;;5072906;28;20421;-93
2023/07/01 06:37:36;;;;;;;29.52;22.17;;;16.70;99.90;;;;;;5070606;28;20410;-94
2023/07/01 06:40:02;;;;;;;27.40;20.77;;;16.40;99.90;;;;;;5056314;28;20397;-93
2023/07/01 06:42:28;;;;;;;26.52;20.65;;;16.60;99.90;;;;;;5054013;28;20486;-92
2023/07/01 06:44:54;;;;;;;25.63;20.55;;;16.70;99.90;;;;;;5072017;28;20418;-91
2023/07/01 06:47:19;;;;;;;25.53;19.50;;;16.80;99.90;;;;;;5069803;28;20402;-93
2023/07/01 06:49:45;;;;;;;25.25;19.67;;;16.80;99.90;;;;;;5071735;28;20832;-93
2023/07/01 06:52:11;;;;;;;26.73;20.00;;;17.10;99.90;;;;;;5053889;28;20414;-94
2023/07/01 06:54:36;;;;;;;28.95;19.58;;;17.10;99.90;;;;;;5069732;28;20442;-94
2023/07/01 06:57:13;;;;;;;25.25;18.17;;;17.00;99.90;;;;;;5054729;28;20457;-93
2023/07/01 06:59:38;;;;;;;22.60;17.33;;;17.10;99.90;;;;;;5051511;28;20402;-94
2023/07/01 07:02:06;;;;;;;23.10;17.53;;;17.10;99.90;;;;;;5070604;28;20414;-93
2023/07/01 07:04:32;;;;;;;22.70;17.45;;;17.30;99.90;;;;;;5052364;28;20517;-93
2023/07/01 07:06:58;;;;;;;18.65;15.73;;;17.10;99.90;;;;;;5071458;28;20521;-92
2023/07/01 07:09:23;;;;;;;22.90;16.70;;;17.30;99.90;;;;;;5069626;28;20394;-92
2023/07/01 07:11:51;;;;;;;23.30;17.38;;;17.30;99.90;;;;;;5067116;28;20439;-94
2023/07/01 07:14:17;;;;;;;17.70;14.02;;;17.80;99.90;;;;;;5053552;28;20558;-92
2023/07/01 07:17:12;;;;;;;20.03;14.60;;;17.30;99.90;;;;;;5050083;28;21012;-94
2023/07/01 07:20:05;;;;;;;13.80;11.02;;;17.40;99.90;;;;;;5069297;28;20868;-93
2023/07/01 07:22:37;;;;;;;16.27;11.52;;;17.50;99.90;;;;;;5052964;28;20458;-94
2023/07/01 07:28:38;;;;;;;17.65;12.52;;;17.50;99.90;;;;;;4974176;28;20438;-94
2023/07/01 07:32:12;;;;;;;16.42;13.15;;;17.50;99.90;;;;;;4913941;29;20846;-94
2023/07/01 07:34:52;;;;;;;16.98;13.27;;;17.60;99.90;;;;;;4943833;28;20422;-93
2023/07/01 07:37:17;;;;;;;16.13;13.00;;;17.60;99.90;;;;;;5086281;22;20424;-93
2023/07/01 07:39:46;;;;;;;13.00;11.40;;;18.00;99.90;;;;;;5064534;28;20407;-94
2023/07/01 07:42:12;;;;;;;13.43;11.45;;;17.50;99.90;;;;;;5050518;28;20404;-93
2023/07/01 07:44:37;;;;;;;11.13;9.43;;;17.80;99.90;;;;;;5048481;28;20761;-91
2023/07/01 07:47:03;;;;;;;9.57;8.60;;;17.60;99.90;;;;;;5049709;28;20404;-92
2023/07/01 07:49:29;;;;;;;11.10;9.90;;;17.70;99.90;;;;;;5049415;28;20411;-93
2023/07/01 07:51:55;;;;;;;10.53;9.43;;;17.70;99.90;;;;;;5048030;28;20503;-95
2023/07/01 07:54:21;;;;;;;7.70;7.00;;;18.00;99.90;;;;;;5049971;28;20427;-93
2023/07/01 07:56:46;;;;;;;9.10;8.18;;;17.80;99.90;;;;;;5047880;28;20485;-93
2023/07/01 07:59:13;;;;;;;11.57;9.03;;;17.80;99.90;;;;;;5050636;28;20404;-92
2023/07/01 08:01:39;;;;;;;9.15;8.20;;;17.90;99.90;;;;;;5048191;28;20452;-91
2023/07/01 08:04:05;;;;;;;9.25;7.95;;;17.90;99.90;;;;;;5050261;28;20881;-92
2023/07/01 08:06:30;;;;;;;8.90;8.00;;;17.90;99.90;;;;;;5048816;28;20499;-92
2023/07/01 08:08:56;;;;;;;7.45;6.75;;;17.90;99.90;;;;;;5048852;28;20804;-92
2023/07/01 08:11:22;;;;;;;7.77;6.80;;;17.80;99.90;;;;;;5049330;28;20446;-93
2023/07/01 08:13:47;;;;;;;9.60;8.00;;;17.80;99.90;;;;;;5046990;28;20509;-92
2023/07/01 08:16:14;;;;;;;8.00;7.20;;;17.90;99.90;;;;;;5049420;28;20462;-91
2023/07/01 08:18:40;;;;;;;9.27;7.88;;;18.10;99.90;;;;;;5048017;28;20438;-90
2023/07/01 08:21:06;;;;;;;10.50;8.65;;;17.80;99.90;;;;;;5049799;28;20848;-92
2023/07/01 08:23:32;;;;;;;12.30;9.00;;;18.10;99.90;;;;;;5048731;28;20410;-90
2023/07/01 08:25:57;;;;;;;11.38;9.05;;;17.80;99.90;;;;;;5036283;28;20467;-91
2023/07/01 08:28:24;;;;;;;11.55;9.60;;;17.80;99.90;;;;;;5029471;28;20463;-91
2023/07/01 08:30:50;;;;;;;11.00;8.35;;;17.90;99.90;;;;;;5028133;28;20455;-92
2023/07/01 08:33:16;;;;;;;14.65;9.20;;;17.90;99.90;;;;;;5029936;28;20806;-92
2023/07/01 08:35:42;;;;;;;7.73;5.20;;;18.00;99.90;;;;;;5027523;28;20972;-90
2023/07/01 08:38:08;;;;;;;5.38;4.55;;;18.30;99.90;;;;;;5029824;28;20421;-90
2023/07/01 08:40:34;;;;;;;6.22;3.40;;;18.10;99.90;;;;;;5027710;28;20500;-91
2023/07/01 08:43:04;;;;;;;3.73;2.27;;;18.20;99.90;;;;;;5029025;28;20485;-91
2023/07/01 08:45:33;;;;;;;1.40;0.80;;;18.30;99.90;;;;;;5028715;28;20410;-90
2023/07/01 08:47:59;;;;;;;1.92;1.13;;;18.60;99.90;;;;;;5028039;28;20405;-91
2023/07/01 08:50:31;;;;;;;2.40;1.10;;;18.60;99.90;;;;;;5029425;28;20516;-91
2023/07/01 08:53:06;;;;;;;3.03;0.98;;;18.40;99.90;;;;;;5027499;28;20936;-90
2023/07/01 08:55:33;;;;;;;2.47;1.25;;;18.50;99.90;;;;;;5036435;28;20488;-92
2023/07/01 08:58:00;;;;;;;3.25;0.57;;;18.80;99.90;;;;;;5047705;28;20444;-90
2023/07/01 09:00:26;;;;;;;2.35;0.82;;;18.50;99.90;;;;;;5041592;28;20484;-90
2023/07/01 09:02:52;;;;;;;3.83;1.80;;;18.40;99.90;;;;;;5028722;28;20508;-89
2023/07/01 09:05:18;;;;;;;6.32;2.90;;;18.60;99.90;;;;;;5027298;28;20402;-90
2023/07/01 09:07:44;;;;;;;4.32;3.10;;;18.20;99.90;;;;;;5029118;28;20724;-89
2023/07/01 09:10:12;;;;;;;4.93;3.43;;;18.60;99.90;;;;;;5026718;28;20471;-89
2023/07/01 09:12:38;;;;;;;8.30;3.72;;;18.40;99.90;;;;;;5028241;28;20517;-89
2023/07/01 09:15:06;;;;;;;9.53;4.73;;;18.40;99.90;;;;;;5029662;28;20484;-90
2023/07/01 09:17:39;;;;;;;12.05;4.90;;;18.40;99.90;;;;;;5047989;28;20408;-90
2023/07/01 09:20:14;;;;;;;8.02;4.78;;;18.60;99.90;;;;;;5048334;28;20961;-89
2023/07/01 09:22:46;;;;;;;9.67;5.03;;;18.50;99.90;;;;;;5046975;28;20408;-91
2023/07/01 09:25:27;;;;;;;8.65;4.07;;;18.60;99.90;;;;;;5041054;28;20464;-90
2023/07/01 09:27:53;;;;;;;10.60;4.70;;;18.50;99.90;;;;;;5030171;28;20421;-88
2023/07/01 09:30:24;;;;;;;10.77;5.40;;;18.90;99.90;;;;;;5038036;28;20457;-89
2023/07/01 09:32:49;;;;;;;13.40;6.15;;;18.40;99.90;;;;;;5039286;28;20807;-89
2023/07/01 09:35:15;;;;;;;19.42;7.57;;;18.70;99.90;;;;;;5038094;28;20429;-89
2023/07/01 09:37:41;;;;;;;12.73;7.40;;;18.80;99.90;;;;;;5054355;28;20983;-88
2023/07/01 09:40:26;;;;;;;20.55;8.63;;;18.70;99.90;;;;;;5037218;28;20776;-88
2023/07/01 09:42:54;;;;;;;15.55;10.18;;;18.60;99.90;;;;;;5053001;28;20892;-89
2023/07/01 09:45:20;;;;;;;20.45;10.93;;;18.80;99.90;;;;;;5036687;28;20919;-90
2023/07/01 09:47:52;;;;;;;22.53;11.60;;;18.90;99.90;;;;;;5042646;28;20403;-89
2023/07/01 09:50:23;;;;;;;19.60;11.77;;;18.90;99.90;;;;;;5040249;28;20407;-90
2023/07/01 09:52:52;;;;;;;17.92;11.30;;;18.70;99.90;;;;;;5053449;28;20425;-91
2023/07/01 09:55:18;;;;;;;21.20;12.00;;;18.90;99.90;;;;;;5035852;28;20948;-89
2023/07/01 09:57:44;;;;;;;21.15;13.27;;;19.10;99.90;;;;;;5063507;28;20395;-89
2023/07/01 10:00:10;;;;;;;22.92;14.60;;;19.20;99.90;;;;;;5044298;28;20443;-90
2023/07/01 10:02:36;;;;;;;23.60;15.57;;;19.00;99.90;;;;;;5027572;28;20432;-90
2023/07/01 10:05:02;;;;;;;30.50;17.08;;;19.20;99.90;;;;;;5029029;28;20393;-89
2023/07/01 10:07:27;;;;;;;25.07;15.20;;;19.00;99.90;;;;;;5028067;28;20405;-89
2023/07/01 10:09:53;;;;;;;15.52;11.57;;;19.10;99.90;;;;;;5046003;28;20410;-89
2023/07/01 10:12:20;;;;;;;19.65;12.18;;;19.30;99.90;;;;;;5048971;28;20414;-91
2023/07/01 10:14:50;;;;;;;16.40;12.47;;;18.90;99.90;;;;;;5047492;28;20415;-91
2023/07/01 10:17:17;;;;;;;25.25;14.52;;;18.90;99.90;;;;;;5049036;28;20431;-89
2023/07/01 10:19:46;;;;;;;19.38;14.13;;;19.00;99.90;;;;;;5047289;28;20458;-91
2023/07/01 10:22:23;;;;;;;16.83;12.52;;;19.00;99.90;;;;;;5045512;28;20417;-91
2023/07/01 10:25:03;;;;;;;21.15;13.60;;;19.10;99.90;;;;;;5029212;28;20428;-90
2023/07/01 10:27:42;;;;;;;17.08;13.55;;;19.10;99.90;;;;;;5027467;28;20420;-89
2023/07/01 10:30:09;;;;;;;25.88;14.40;;;19.10;99.90;;;;;;5048306;28;20418;-89
2023/07/01 10:32:35;;;;;;;23.98;14.10;;;19.20;99.90;;;;;;5046676;28;20399;-91
2023/07/01 10:35:03;;;;;;;14.77;11.07;;;19.30;99.90;;;;;;5048625;28;20408;-88
2023/07/01 10:37:31;;;;;;;10.73;9.63;;;19.50;99.90;;;;;;5048330;28;20415;-92
2023/07/01 10:39:58;;;;;;;21.13;12.27;;;19.60;99.90;;;;;;5051713;28;20470;-91
2023/07/01 10:42:31;;;;;;;12.68;10.88;;;19.60;99.90;;;;;;5052265;28;20908;-92
2023/07/01 10:45:12;;;;;;;16.85;12.45;;;19.50;99.90;;;;;;5050734;28;20403;-91
2023/07/01 10:47:42;;;;;;;15.23;12.05;;;19.50;99.90;;;;;;5051714;28;20411;-91
2023/07/01 10:50:10;;;;;;;18.30;13.73;;;19.30;99.90;;;;;;5049985;28;20908;-89
2023/07/01 10:55:46;;;;;;;24.05;15.57;;;19.00;99.90;;;;;;5068090;28;20507;-90
2023/07/01 10:58:24;;;;;;;23.15;16.35;;;19.10;99.90;;;;;;5050660;28;20451;-90
2023/07/01 11:00:56;;;;;;;23.02;16.73;;;19.20;99.90;;;;;;5052429;28;20415;-90
2023/07/01 11:03:34;;;;;;;19.27;15.85;;;19.30;99.90;;;;;;5050732;28;20418;-92
2023/07/01 11:06:10;;;;;;;26.98;18.02;;;19.40;99.90;;;;;;5051616;28;20446;-92
2023/07/01 11:08:47;;;;;;;29.23;18.17;;;19.70;99.90;;;;;;5052299;28;21046;-92
2023/07/01 11:11:24;;;;;;;22.42;15.45;;;19.50;99.90;;;;;;5050096;28;20449;-92
2023/07/01 11:13:55;;;;;;;23.35;16.05;;;19.50;99.90;;;;;;5048392;28;20440;-93
2023/07/01 11:16:21;;;;;;;20.87;15.40;;;19.40;99.90;;;;;;5040566;28;20429;-90
2023/07/01 11:18:49;;;;;;;13.57;11.85;;;19.30;99.90;;;;;;5030916;28;20410;-90
2023/07/01 11:21:19;;;;;;;16.95;14.00;;;19.40;99.90;;;;;;5032446;28;20412;-91
2023/07/01 11:24:00;;;;;;;16.50;14.23;;;19.20;99.90;;;;;;5030920;28;20424;-90
2023/07/01 11:26:28;;;;;;;17.58;14.10;;;19.30;99.90;;;;;;5031880;28;20431;-91
2023/07/01 11:28:54;;;;;;;16.20;12.93;;;19.30;99.90;;;;;;5030283;28;20905;-92
2023/07/01 11:31:22;;;;;;;16.33;13.50;;;19.30;99.90;;;;;;5031507;28;20505;-92
2023/07/01 11:33:56;;;;;;;20.17;14.93;;;19.50;99.90;;;;;;5030185;28;20428;-90
2023/07/01 11:36:44;;;;;;;15.52;13.68;;;19.60;99.90;;;;;;5030956;28;20513;-94
2023/07/01 11:39:15;;;;;;;16.08;14.18;;;19.80;99.90;;;;;;5030481;28;20504;-89
2023/07/01 11:41:47;;;;;;;17.20;14.05;;;19.90;99.90;;;;;;5045631;28;20413;-88
2023/07/01 11:44:14;;;;;;;13.73;12.27;;;19.90;99.90;;;;;;5030491;28;20935;-89
2023/07/01 11:46:42;;;;;;;14.57;13.05;;;20.20;99.90;;;;;;5029176;28;20750;-89
2023/07/01 11:49:15;;;;;;;18.30;13.95;;;20.40;99.90;;;;;;5046979;28;20442;-88
2023/07/01 11:51:43;;;;;;;13.20;11.80;;;20.30;99.90;;;;;;5047763;28;20412;-86
2023/07/01 11:54:09;;;;;;;12.30;10.30;;;20.20;99.90;;;;;;5047530;28;20432;-91
2023/07/01 11:56:35;;;;;;;10.60;8.73;;;20.20;99.90;;;;;;5031782;28;20916;-92
2023/07/01 11:59:00;;;;;;;12.57;9.87;;;20.10;99.90;;;;;;5029289;28;20409;-92
2023/07/01 12:01:27;;;;;;;11.20;9.93;;;19.80;99.90;;;;;;5031129;28;20447;-93
2023/07/01 12:03:53;;;;;;;11.88;9.27;;;19.60;99.90;;;;;;5033997;28;20396;-91
2023/07/01 12:06:24;;;;;;;9.45;8.20;;;19.80;99.90;;;;;;5050935;28;21097;-91
2023/07/01 12:08:57;;;;;;;7.93;7.07;;;19.90;99.90;;;;;;5050807;28;20416;-92
2023/07/01 12:11:24;;;;;;;8.90;7.00;;;20.10;99.90;;;;;;5037227;28;20413;-93
2023/07/01 12:13:51;;;;;;;9.00;5.82;;;20.50;99.90;;;;;;5031329;28;20451;-93
2023/07/01 12:16:17;;;;;;;6.78;6.10;;;20.80;99.90;;;;;;5028586;28;20444;-91
2023/07/01 12:18:43;;;;;;;7.03;6.32;;;21.00;99.90;;;;;;5031428;28;20413;-92
2023/07/01 12:21:10;;;;;;;7.90;5.95;;;21.00;99.90;;;;;;5031301;28;20397;-91
2023/07/01 12:23:40;;;;;;;5.80;5.20;;;20.90;99.90;;;;;;5048037;28;20979;-91
2023/07/01 12:26:06;;;;;;;5.10;4.60;;;20.50;99.90;;;;;;5030673;28;20491;-92
2023/07/01 12:28:32;;;;;;;6.10;5.50;;;21.00;99.90;;;;;;5025607;28;20917;-91
2023/07/01 12:30:57;;;;;;;5.07;4.25;;;20.60;99.90;;;;;;5031919;28;20404;-89
2023/07/01 12:33:23;;;;;;;5.10;4.30;;;21.00;99.90;;;;;;5065591;28;20672;-92
2023/07/01 12:35:49;;;;;;;4.00;3.60;;;20.90;99.90;;;;;;5050716;28;20940;-91
2023/07/01 12:38:14;;;;;;;3.83;3.10;;;20.70;99.90;;;;;;5047762;28;20480;-90
2023/07/01 12:40:40;;;;;;;4.40;3.47;;;20.50;99.90;;;;;;5050782;28;20580;-91
2023/07/01 12:43:07;;;;;;;6.57;4.20;;;20.30;99.90;;;;;;5050059;28;20403;-91
2023/07/01 12:45:33;;;;;;;7.00;4.25;;;20.40;99.90;;;;;;5049947;28;20447;-92
2023/07/01 12:48:00;;;;;;;7.10;4.25;;;20.60;99.90;;;;;;5050480;28;20819;-91
2023/07/01 12:50:26;;;;;;;5.28;4.05;;;20.50;99.90;;;;;;5049148;28;20541;-91
2023/07/01 12:52:53;;;;;;;5.68;3.70;;;20.60;99.90;;;;;;5046265;28;20400;-90
2023/07/01 12:55:22;;;;;;;6.47;4.53;;;20.60;99.90;;;;;;5048881;28;20450;-91
2023/07/01 12:57:48;;;;;;;6.95;4.75;;;20.70;99.90;;;;;;5050778;28;20880;-90